Time;durP1;ratioP1;P1;durP2;ratioP2;P2;SDS_P1;SDS_P2;PMS_P1;PMS_P2;Temp;Humidity;BMP_temperature;BMP_pressure;BME280_temperature;BME280_humidity;BME280_pressure;Samples;Min_cycle;Max_cycle;Signal;HPM_P1;HPM_P2
2021/04/22 00:00:40;;;;;;;27.40;17.13;;;15.70;54.50;;;;;;9794296;29;20071;-80
2021/04/22 00:05:43;;;;;;;30.65;19.30;;;15.40;53.70;;;;;;9810296;29;20083;-81
2021/04/22 00:10:41;;;;;;;27.05;17.35;;;14.90;53.70;;;;;;9808791;29;20079;-79
2021/04/22 00:15:36;;;;;;;31.85;18.65;;;15.20;54.10;;;;;;9809087;29;20468;-80
2021/04/22 00:20:30;;;;;;;29.92;18.45;;;15.10;54.10;;;;;;9825144;29;20080;-80
2021/04/22 00:25:29;;;;;;;30.50;18.23;;;15.90;54.50;;;;;;9808233;29;20095;-80
2021/04/22 00:30:25;;;;;;;29.35;19.38;;;15.40;55.20;;;;;;9825497;29;20083;-80
2021/04/22 00:35:19;;;;;;;32.63;19.42;;;;;;;;;;9808553;29;20087;-80
2021/04/22 00:40:16;;;;;;;30.73;18.13;;;14.80;54.50;;;;;;9808277;29;20091;-81
2021/04/22 00:45:14;;;;;;;29.13;18.80;;;14.80;54.60;;;;;;9837050;29;20048;-81
2021/04/22 00:50:13;;;;;;;23.13;14.23;;;15.30;54.70;;;;;;9792123;29;20499;-79
2021/04/22 00:55:10;;;;;;;20.90;13.53;;;15.50;55.60;;;;;;9824052;29;20554;-81
2021/04/22 01:00:12;;;;;;;17.55;10.98;;;16.30;55.80;;;;;;9806649;29;20459;-81
2021/04/22 01:05:10;;;;;;;19.55;11.13;;;14.70;55.10;;;;;;9820164;29;20108;-79
2021/04/22 01:10:06;;;;;;;19.10;11.67;;;15.20;54.40;;;;;;9824397;29;20406;-81
2021/04/22 01:15:01;;;;;;;16.50;10.77;;;16.00;54.90;;;;;;9807345;29;20856;-79
2021/04/22 01:19:55;;;;;;;21.70;13.18;;;15.50;54.80;;;;;;9824073;29;20087;-80
2021/04/22 01:24:51;;;;;;;28.77;17.58;;;16.00;55.20;;;;;;9806169;29;20506;-81
2021/04/22 01:29:45;;;;;;;27.20;17.70;;;14.70;55.10;;;;;;9823174;29;20076;-81
2021/04/22 01:34:39;;;;;;;25.85;16.27;;;14.80;56.80;;;;;;9823228;29;20079;-81
2021/04/22 01:39:33;;;;;;;27.33;17.13;;;;;;;;;;9823448;29;20442;-81
2021/04/22 01:44:28;;;;;;;25.52;16.58;;;14.80;56.90;;;;;;9806307;29;20530;-81
2021/04/22 01:49:22;;;;;;;25.30;15.63;;;15.90;58.10;;;;;;9806343;29;20090;-81
2021/04/22 01:54:16;;;;;;;24.95;17.52;;;16.20;58.60;;;;;;9805739;29;20067;-81
2021/04/22 01:59:10;;;;;;;28.00;19.63;;;14.90;58.20;;;;;;9823181;29;20083;-80
2021/04/22 02:04:06;;;;;;;35.20;20.60;;;14.40;57.70;;;;;;9822646;29;20075;-79
2021/04/22 02:09:00;;;;;;;32.22;19.90;;;14.10;57.80;;;;;;9823800;29;20476;-79
2021/04/22 02:13:55;;;;;;;31.33;19.25;;;14.10;57.70;;;;;;9831193;29;20086;-81
2021/04/22 02:18:49;;;;;;;30.00;19.60;;;14.70;58.20;;;;;;9830177;29;20079;-81
2021/04/22 02:23:44;;;;;;;26.48;18.00;;;13.70;58.20;;;;;;9830263;29;20184;-81
2021/04/22 02:28:39;;;;;;;25.73;16.90;;;15.50;58.90;;;;;;9812925;29;20468;-81
2021/04/22 02:33:33;;;;;;;26.50;17.20;;;13.20;58.00;;;;;;9829484;29;20102;-80
2021/04/22 02:38:28;;;;;;;26.25;15.52;;;14.80;58.90;;;;;;9812182;29;20080;-81
2021/04/22 02:43:23;;;;;;;19.88;13.35;;;14.20;57.90;;;;;;9828999;29;20091;-81
2021/04/22 02:48:21;;;;;;;18.10;11.07;;;14.20;58.60;;;;;;9827587;29;20091;-80
2021/04/22 02:53:15;;;;;;;16.52;10.70;;;14.40;57.80;;;;;;9812104;29;20079;-81
2021/04/22 02:58:10;;;;;;;16.95;9.55;;;14.80;58.70;;;;;;9811833;29;20537;-80
2021/04/22 03:03:07;;;;;;;15.00;9.35;;;14.20;58.40;;;;;;9828727;29;20056;-80
2021/04/22 03:08:01;;;;;;;13.27;8.95;;;;;;;;;;9826736;29;20119;-79
2021/04/22 03:12:55;;;;;;;14.77;8.93;;;;;;;;;;9827675;29;20106;-79
2021/04/22 03:17:50;;;;;;;14.40;8.90;;;;;;;;;;9826593;29;20082;-79
2021/04/22 03:22:45;;;;;;;17.45;9.50;;;15.10;58.70;;;;;;9810245;29;20052;-80
2021/04/22 03:27:39;;;;;;;15.63;10.32;;;14.50;57.60;;;;;;9828555;29;20079;-82
2021/04/22 03:32:34;;;;;;;16.75;10.02;;;13.80;57.70;;;;;;9811539;29;20279;-81
2021/04/22 03:37:28;;;;;;;19.55;12.32;;;12.50;58.20;;;;;;9811048;29;20076;-80
2021/04/22 03:42:23;;;;;;;21.58;12.65;;;15.20;59.80;;;;;;9810228;29;20087;-82
2021/04/22 03:47:17;;;;;;;24.30;15.18;;;;;;;;;;9825911;28;20479;-81
2021/04/22 03:52:12;;;;;;;20.27;13.27;;;16.10;60.80;;;;;;9825222;29;20095;-82
2021/04/22 03:57:08;;;;;;;21.67;13.05;;;14.80;60.20;;;;;;9809688;29;20083;-82
2021/04/22 04:02:04;;;;;;;25.27;12.10;;;12.70;59.10;;;;;;9826833;29;20090;-81
2021/04/22 04:06:58;;;;;;;17.77;11.63;;;15.30;60.60;;;;;;9839162;29;20055;-81
2021/04/22 04:11:52;;;;;;;23.85;12.02;;;14.70;59.40;;;;;;9810017;29;20106;-82
2021/04/22 04:16:46;;;;;;;19.17;11.88;;;12.20;58.80;;;;;;9809246;29;20075;-82
2021/04/22 04:21:42;;;;;;;21.33;12.02;;;13.10;59.40;;;;;;9825876;29;20055;-82
2021/04/22 04:26:36;;;;;;;19.77;11.85;;;14.30;59.30;;;;;;9825389;29;20086;-83
2021/04/22 04:31:32;;;;;;;18.85;11.15;;;14.10;59.10;;;;;;9820584;29;20115;-83
2021/04/22 04:36:26;;;;;;;20.60;11.23;;;;;;;;;;9824482;29;20479;-83
2021/04/22 04:41:21;;;;;;;16.40;10.10;;;15.10;60.10;;;;;;9825558;29;20052;-83
2021/04/22 04:46:17;;;;;;;16.65;10.18;;;12.40;58.70;;;;;;9825209;29;20088;-82
2021/04/22 04:51:12;;;;;;;14.75;9.63;;;13.90;59.40;;;;;;9824669;29;20085;-82
2021/04/22 04:56:07;;;;;;;16.58;10.27;;;14.40;59.40;;;;;;9823377;29;20102;-82
2021/04/22 05:01:04;;;;;;;17.90;11.40;;;15.50;60.60;;;;;;9807299;29;20091;-82
2021/04/22 05:06:00;;;;;;;17.15;11.73;;;14.80;60.00;;;;;;9818535;29;20072;-82
2021/04/22 05:10:54;;;;;;;15.88;10.13;;;13.50;58.60;;;;;;9806813;29;20044;-83
2021/04/22 05:15:49;;;;;;;20.88;11.80;;;13.80;58.90;;;;;;9791884;29;20108;-83
2021/04/22 05:20:44;;;;;;;16.75;9.95;;;15.10;60.20;;;;;;9824441;29;20086;-82
2021/04/22 05:25:40;;;;;;;14.57;9.23;;;;;;;;;;9823325;29;20076;-82
2021/04/22 05:30:34;;;;;;;21.90;11.40;;;15.30;60.10;;;;;;9806322;29;20159;-81
2021/04/22 05:35:32;;;;;;;19.95;11.15;;;;;;;;;;9790230;29;20095;-82
2021/04/22 05:40:27;;;;;;;17.83;10.25;;;14.60;59.60;;;;;;9805321;29;20487;-82
2021/04/22 05:45:21;;;;;;;22.38;10.55;;;;;;;;;;9805224;29;20389;-82
2021/04/22 05:50:16;;;;;;;18.45;9.60;;;14.60;59.50;;;;;;9805369;29;20063;-84
2021/04/22 05:55:12;;;;;;;15.15;9.50;;;14.70;59.20;;;;;;9827339;29;20074;-87
2021/04/22 06:00:10;;;;;;;16.50;9.77;;;16.00;59.00;;;;;;9844398;29;20087;-82
2021/04/22 06:05:04;;;;;;;20.83;10.50;;;;;;;;;;9856754;29;20149;-83
2021/04/22 06:09:59;;;;;;;18.90;11.70;;;;;;;;;;9840492;29;20056;-82
2021/04/22 06:14:54;;;;;;;19.42;10.38;;;14.40;57.40;;;;;;9840356;29;20530;-80
2021/04/22 06:19:52;;;;;;;20.80;10.07;;;;;;;;;;9856939;29;20083;-81
2021/04/22 06:24:45;;;;;;;19.95;11.13;;;13.60;56.90;;;;;;9840006;29;20091;-83
2021/04/22 06:29:39;;;;;;;21.13;11.07;;;;;;;;;;9856667;29;20079;-82
2021/04/22 06:34:33;;;;;;;20.83;11.07;;;;;;;;;;9838987;29;20106;-82
2021/04/22 06:39:28;;;;;;;17.40;10.88;;;;;;;;;;9857084;29;20079;-80
2021/04/22 06:44:23;;;;;;;19.17;10.98;;;;;;;;;;9839216;29;20083;-81
2021/04/22 06:49:17;;;;;;;21.95;10.95;;;13.40;57.60;;;;;;9856617;29;20520;-80
2021/04/22 06:54:15;;;;;;;21.88;12.45;;;13.40;57.80;;;;;;9857799;29;20102;-80
2021/04/22 06:59:12;;;;;;;22.45;13.77;;;15.80;58.50;;;;;;9862035;29;20090;-81
2021/04/22 07:04:09;;;;;;;20.42;11.57;;;13.50;58.00;;;;;;9864258;29;20094;-82
2021/04/22 07:09:35;;;;;;;16.10;10.90;;;16.00;59.00;;;;;;9866384;29;20059;-82
2021/04/22 07:14:30;;;;;;;19.73;11.20;;;15.20;58.70;;;;;;9849694;29;20059;-81
2021/04/22 07:19:30;;;;;;;17.30;10.18;;;15.50;58.80;;;;;;9847248;29;20079;-81
2021/04/22 07:29:36;;;;;;;18.88;10.30;;;16.30;57.80;;;;;;9845533;29;20079;-83
2021/04/22 07:34:33;;;;;;;20.30;9.90;;;14.80;57.10;;;;;;9857882;29;20479;-82
2021/04/22 07:39:29;;;;;;;20.15;10.20;;;15.10;57.70;;;;;;9861458;29;20483;-82
2021/04/22 07:44:29;;;;;;;18.17;9.45;;;;;;;;;;9845371;29;20087;-79
2021/04/22 07:49:28;;;;;;;15.18;9.45;;;;;;;;;;9860449;29;20083;-79
2021/04/22 07:54:30;;;;;;;19.02;10.05;;;15.00;56.80;;;;;;9843126;29;20051;-79
2021/04/22 07:59:26;;;;;;;19.20;9.73;;;16.40;57.50;;;;;;9827985;29;20448;-78
2021/04/22 08:04:21;;;;;;;19.92;10.32;;;16.50;56.40;;;;;;9872919;29;20087;-79
2021/04/22 08:09:17;;;;;;;22.05;9.80;;;16.00;55.90;;;;;;9845672;29;20525;-79
2021/04/22 08:14:14;;;;;;;21.10;9.80;;;;;;;;;;9845946;29;20058;-78
2021/04/22 08:19:09;;;;;;;14.95;9.77;;;15.60;56.30;;;;;;9861949;29;20447;-77
2021/04/22 08:24:07;;;;;;;20.45;9.52;;;16.60;56.50;;;;;;9829196;29;20083;-76
2021/04/22 08:29:03;;;;;;;15.63;8.45;;;;;;;;;;9861302;29;20494;-77
2021/04/22 08:34:00;;;;;;;17.95;8.85;;;;;;;;;;9854950;29;20419;-77
2021/04/22 08:38:55;;;;;;;14.80;9.10;;;16.00;55.40;;;;;;9828113;29;20106;-77
2021/04/22 08:43:52;;;;;;;17.27;9.90;;;;;;;;;;9860736;28;20487;-77
2021/04/22 08:48:53;;;;;;;15.68;9.07;;;;;;;;;;9844043;29;20083;-76
2021/04/22 08:53:49;;;;;;;15.75;9.63;;;;;;;;;;9843300;29;20087;-78
2021/04/22 08:58:51;;;;;;;20.08;10.63;;;16.00;54.40;;;;;;9859582;29;20090;-78
2021/04/22 09:03:48;;;;;;;17.20;9.65;;;;;;;;;;9827174;29;20516;-78
2021/04/22 09:08:48;;;;;;;16.27;9.32;;;17.20;54.30;;;;;;9858971;29;20554;-78
2021/04/22 09:13:46;;;;;;;14.25;8.52;;;17.70;54.60;;;;;;9858584;28;20102;-78
2021/04/22 09:18:53;;;;;;;18.42;9.85;;;;;;;;;;9841494;29;20102;-77
2021/04/22 09:24:19;;;;;;;14.27;9.63;;;18.70;52.10;;;;;;9855133;29;20062;-79
2021/04/22 09:29:30;;;;;;;16.95;8.73;;;18.30;51.90;;;;;;9840389;29;20090;-77
2021/04/22 09:34:34;;;;;;;15.83;8.30;;;19.20;53.10;;;;;;9854975;29;20052;-80
2021/04/22 09:39:46;;;;;;;17.02;8.95;;;;;;;;;;9839892;29;20091;-77
2021/04/22 09:44:47;;;;;;;11.43;7.30;;;;;;;;;;9840678;29;20085;-78
2021/04/22 09:49:49;;;;;;;12.30;7.35;;;19.30;51.20;;;;;;9838079;29;20086;-78
2021/04/22 09:54:50;;;;;;;12.10;6.85;;;19.60;50.20;;;;;;9857600;29;20179;-78
2021/04/22 09:59:54;;;;;;;12.82;7.10;;;;;;;;;;9842997;29;20487;-78
2021/04/22 10:05:18;;;;;;;11.82;6.72;;;19.00;49.40;;;;;;9823964;29;20099;-78
2021/04/22 10:10:24;;;;;;;9.55;6.28;;;;;;;;;;9856949;29;20089;-79
2021/04/22 10:15:23;;;;;;;11.73;7.20;;;18.30;47.30;;;;;;9869612;29;20474;-78
2021/04/22 10:20:19;;;;;;;10.57;6.47;;;;;;;;;;9840573;29;20083;-79
2021/04/22 10:25:30;;;;;;;9.85;6.32;;;18.30;46.70;;;;;;9828608;29;20091;-78
2021/04/22 10:30:26;;;;;;;12.23;6.07;;;;;;;;;;9826307;29;20090;-79
2021/04/22 10:35:24;;;;;;;12.18;6.70;;;18.20;45.70;;;;;;9847189;29;20070;-78
2021/04/22 10:40:19;;;;;;;13.10;7.63;;;18.20;45.00;;;;;;9833342;29;20526;-80
2021/04/22 10:45:23;;;;;;;15.23;7.53;;;19.50;45.10;;;;;;9863241;29;20059;-79
2021/04/22 10:50:30;;;;;;;8.75;5.78;;;21.10;45.20;;;;;;9848869;29;20079;-80
2021/04/22 11:13:31;;;;;;;11.00;5.65;;;21.30;44.50;;;;;;9864268;28;20086;-80
2021/04/22 11:25:23;;;;;;;7.18;4.45;;;;;;;;;;9876565;29;20055;-80
2021/04/22 11:30:32;;;;;;;5.45;3.50;;;18.10;43.90;;;;;;9847543;29;20059;-78
2021/04/22 11:35:55;;;;;;;10.40;3.70;;;20.90;43.20;;;;;;9860643;29;20536;-80
2021/04/22 11:46:57;;;;;;;5.35;3.35;;;22.20;39.40;;;;;;9847820;29;20102;-80
2021/04/22 12:10:05;;;;;;;11.38;6.47;;;25.40;32.50;;;;;;9846263;29;20098;-79
2021/04/22 12:15:16;;;;;;;14.95;8.40;;;23.50;30.00;;;;;;9844429;29;20075;-79
2021/04/22 12:20:30;;;;;;;13.98;8.23;;;25.30;33.20;;;;;;9843888;29;20459;-78
2021/04/22 12:25:30;;;;;;;;;;;23.20;29.60;;;;;;9857653;29;20078;-76
2021/04/22 12:30:31;;;;;;;15.02;9.32;;;21.50;33.60;;;;;;9861344;29;19977;-77
2021/04/22 12:35:28;;;;;;;16.48;8.75;;;22.50;37.40;;;;;;9855563;29;20538;-76
2021/04/22 12:40:24;;;;;;;18.40;10.85;;;22.30;38.10;;;;;;9859232;28;20506;-77
2021/04/22 12:45:22;;;;;;;17.93;10.23;;;21.60;40.80;;;;;;9861079;29;20101;-76
2021/04/22 12:50:28;;;;;;;17.23;10.35;;;21.50;42.00;;;;;;9843866;29;20066;-75
2021/04/22 12:55:25;;;;;;;10.95;6.20;;;22.40;42.30;;;;;;9868032;29;20062;-75
2021/04/22 13:00:29;;;;;;;11.55;6.40;;;19.50;40.10;;;;;;9874825;29;20079;-77
2021/04/22 13:05:28;;;;;;;12.95;8.70;;;;;;;;;;9872434;29;20087;-78
2021/04/22 13:10:39;;;;;;;19.58;8.38;;;21.00;40.10;;;;;;9872834;29;20079;-77
2021/04/22 13:15:36;;;;;;;12.45;8.88;;;19.40;41.40;;;;;;9843325;29;20146;-77
2021/04/22 13:20:40;;;;;;;13.43;9.05;;;19.70;44.10;;;;;;9859900;29;20099;-77
2021/04/22 13:25:37;;;;;;;17.48;10.18;;;;;;;;;;9860147;29;20541;-78
2021/04/22 13:30:34;;;;;;;14.80;10.18;;;19.00;47.80;;;;;;9860599;29;20195;-77
2021/04/22 13:35:29;;;;;;;16.48;10.10;;;20.60;47.70;;;;;;9857982;29;20358;-77
2021/04/22 13:40:24;;;;;;;20.65;10.55;;;;;;;;;;9858596;29;20079;-76
2021/04/22 13:45:19;;;;;;;18.63;11.50;;;;;;;;;;9857516;29;20060;-76
2021/04/22 13:50:16;;;;;;;17.05;12.70;;;17.10;47.70;;;;;;9858882;29;20094;-78
2021/04/22 13:55:10;;;;;;;20.60;12.77;;;17.50;47.10;;;;;;9874151;29;20521;-78
2021/04/22 14:00:08;;;;;;;21.80;13.75;;;;;;;;;;9858113;29;20083;-77
2021/04/22 14:05:10;;;;;;;26.25;13.77;;;17.40;48.40;;;;;;9871748;29;20090;-76
2021/04/22 14:10:08;;;;;;;23.38;13.68;;;18.20;48.10;;;;;;9865425;29;20510;-75
2021/04/22 14:15:07;;;;;;;19.17;11.88;;;18.40;48.70;;;;;;9848443;29;20048;-77
2021/04/22 14:20:06;;;;;;;17.90;11.35;;;17.80;48.30;;;;;;9865043;29;20086;-80
2021/04/22 14:25:03;;;;;;;16.08;10.60;;;18.20;47.60;;;;;;9851097;29;20091;-76
2021/04/22 14:30:00;;;;;;;17.08;10.68;;;18.40;48.10;;;;;;9864173;29;20059;-76
2021/04/22 14:34:57;;;;;;;16.50;9.50;;;;;;;;;;9892353;28;20082;-77
2021/04/22 14:40:11;;;;;;;16.40;9.85;;;18.30;48.60;;;;;;9864455;29;20086;-76
2021/04/22 14:45:10;;;;;;;15.25;9.60;;;17.80;47.70;;;;;;9863435;29;20102;-76
2021/04/22 14:50:05;;;;;;;16.60;10.93;;;17.30;48.10;;;;;;9859328;29;20511;-77
2021/04/22 14:55:01;;;;;;;16.90;10.18;;;17.60;48.40;;;;;;9859013;29;20357;-76
2021/04/22 14:59:56;;;;;;;16.20;10.77;;;;;;;;;;9859391;29;20098;-77
2021/04/22 15:04:53;;;;;;;17.13;11.43;;;17.80;47.00;;;;;;9845751;29;20078;-77
2021/04/22 15:09:48;;;;;;;19.98;11.50;;;18.80;47.40;;;;;;9864640;29;20055;-76
2021/04/22 15:14:42;;;;;;;17.77;10.45;;;17.20;47.20;;;;;;9861602;29;20079;-77
2021/04/22 15:19:37;;;;;;;24.42;10.88;;;17.20;46.80;;;;;;9877129;28;20103;-77
2021/04/22 15:24:35;;;;;;;16.92;9.27;;;16.90;46.30;;;;;;9878124;28;20079;-77
2021/04/22 15:29:29;;;;;;;16.13;9.90;;;18.70;47.00;;;;;;9862230;29;20040;-76
2021/04/22 15:34:25;;;;;;;16.45;10.88;;;;;;;;;;9878236;28;20441;-75
2021/04/22 15:39:19;;;;;;;14.40;9.45;;;17.70;45.60;;;;;;9864229;29;20474;-75
2021/04/22 15:44:17;;;;;;;16.45;10.23;;;18.30;46.80;;;;;;9862266;29;20051;-76
2021/04/22 15:49:13;;;;;;;21.10;9.90;;;17.90;46.40;;;;;;9877958;29;20110;-77
2021/04/22 15:54:11;;;;;;;14.45;8.50;;;18.40;46.20;;;;;;9862573;29;20118;-77
2021/04/22 15:59:05;;;;;;;20.35;8.93;;;;;;;;;;9844955;29;20095;-76
2021/04/22 16:04:01;;;;;;;13.65;8.95;;;;;;;;;;9862748;29;20043;-75
2021/04/22 16:08:56;;;;;;;13.82;9.02;;;17.20;45.80;;;;;;9862760;29;20375;-77
2021/04/22 16:13:55;;;;;;;13.85;9.68;;;17.60;46.10;;;;;;9862654;29;20079;-76
2021/04/22 16:18:49;;;;;;;18.25;10.50;;;18.60;46.70;;;;;;9845582;29;20427;-76
2021/04/22 16:23:45;;;;;;;18.83;11.32;;;17.60;45.30;;;;;;9862275;29;20506;-76
2021/04/22 16:28:41;;;;;;;16.77;11.30;;;16.70;45.70;;;;;;9843214;29;20087;-78
2021/04/22 16:33:36;;;;;;;17.17;11.27;;;17.10;45.90;;;;;;9861314;29;20072;-77
2021/04/22 16:38:30;;;;;;;18.70;11.90;;;17.70;46.50;;;;;;9860463;29;20482;-76
2021/04/22 16:43:25;;;;;;;20.17;11.27;;;17.60;45.50;;;;;;9862067;29;20079;-74
2021/04/22 16:48:24;;;;;;;17.65;10.27;;;17.50;46.30;;;;;;9861771;29;20079;-76
2021/04/22 16:53:18;;;;;;;18.33;11.55;;;17.20;46.30;;;;;;9861820;29;20510;-75
2021/04/22 16:58:12;;;;;;;23.17;14.13;;;17.90;46.90;;;;;;9861545;29;20167;-75
2021/04/22 17:03:08;;;;;;;18.58;12.18;;;17.10;46.60;;;;;;9860051;29;20156;-76
2021/04/22 17:08:06;;;;;;;16.42;11.57;;;17.50;46.80;;;;;;9859981;29;20079;-76
2021/04/22 17:13:03;;;;;;;21.70;13.68;;;17.20;46.80;;;;;;9828590;29;20055;-77
2021/04/22 17:18:03;;;;;;;21.23;12.93;;;;;;;;;;9861255;29;20135;-76
2021/04/22 17:22:58;;;;;;;;;;;17.80;47.20;;;;;;9844482;29;20098;-76
2021/04/22 17:27:53;;;;;;;21.67;12.88;;;15.30;46.40;;;;;;9861665;29;19973;-77
2021/04/22 17:32:49;;;;;;;18.88;11.80;;;17.10;47.90;;;;;;9844288;29;20083;-75
2021/04/22 17:37:48;;;;;;;19.23;12.40;;;17.40;48.70;;;;;;9843676;29;20063;-76
2021/04/22 17:42:44;;;;;;;19.20;11.85;;;17.60;49.10;;;;;;9859523;29;20083;-76
2021/04/22 17:47:39;;;;;;;18.98;11.73;;;16.30;48.40;;;;;;9860143;29;20079;-77
2021/04/22 17:52:34;;;;;;;20.85;12.32;;;17.50;50.30;;;;;;9859739;29;20091;-77
2021/04/22 17:57:28;;;;;;;18.67;11.90;;;15.90;49.40;;;;;;9843122;29;20075;-76
2021/04/22 18:02:26;;;;;;;18.40;11.95;;;16.30;49.40;;;;;;9843711;29;20444;-76
2021/04/22 18:07:22;;;;;;;18.77;11.65;;;14.70;49.80;;;;;;9860404;29;20083;-76
2021/04/22 18:12:17;;;;;;;19.40;12.30;;;14.70;49.80;;;;;;9827369;29;20628;-76
2021/04/22 18:17:14;;;;;;;19.58;12.43;;;;;;;;;;9858247;29;20052;-76
2021/04/22 18:22:11;;;;;;;19.05;12.45;;;17.00;50.60;;;;;;9859233;29;20086;-76
2021/04/22 18:27:10;;;;;;;18.00;10.90;;;17.90;51.00;;;;;;9859376;29;20040;-76
2021/04/22 18:32:08;;;;;;;16.13;9.40;;;14.60;48.30;;;;;;9843452;29;20549;-75
2021/04/22 18:37:04;;;;;;;13.70;8.65;;;14.80;48.90;;;;;;9827163;29;20446;-77
2021/04/22 18:41:59;;;;;;;13.57;8.52;;;14.90;47.40;;;;;;9842667;29;20099;-77
2021/04/22 18:46:53;;;;;;;14.27;8.13;;;16.90;49.10;;;;;;9841400;29;20067;-76
2021/04/22 18:51:52;;;;;;;12.30;7.05;;;16.50;48.30;;;;;;9842236;29;20087;-77
2021/04/22 18:56:46;;;;;;;14.15;6.82;;;;;;;;;;9863257;29;20109;-78
2021/04/22 19:01:45;;;;;;;10.95;6.65;;;17.60;48.30;;;;;;9864504;29;20083;-77
2021/04/22 19:06:41;;;;;;;11.57;6.60;;;17.40;48.10;;;;;;9880637;29;20083;-77
2021/04/22 19:11:38;;;;;;;13.25;7.28;;;14.50;46.60;;;;;;9866185;29;20048;-76
2021/04/22 19:16:39;;;;;;;11.35;6.35;;;14.90;46.50;;;;;;9865756;29;20051;-77
2021/04/22 19:21:34;;;;;;;11.13;5.78;;;17.10;46.90;;;;;;9863819;29;20086;-75
2021/04/22 19:26:28;;;;;;;16.17;7.60;;;15.00;46.30;;;;;;9874987;29;20091;-75
2021/04/22 19:31:23;;;;;;;10.10;5.35;;;14.80;46.10;;;;;;9865046;29;20086;-76
2021/04/22 19:36:17;;;;;;;12.25;5.40;;;14.70;45.70;;;;;;9865055;29;20098;-76
2021/04/22 19:41:12;;;;;;;12.40;5.68;;;13.80;44.80;;;;;;9879786;28;20083;-76
2021/04/22 19:46:08;;;;;;;8.57;4.43;;;16.30;45.30;;;;;;9865525;29;20054;-76
2021/04/22 19:51:04;;;;;;;11.68;5.05;;;14.00;44.80;;;;;;9865254;29;20048;-77
2021/04/22 19:56:01;;;;;;;11.27;5.13;;;14.40;44.10;;;;;;9849427;29;20094;-77
2021/04/22 20:00:58;;;;;;;8.85;4.75;;;14.80;45.00;;;;;;9863394;29;20090;-78
2021/04/22 20:05:52;;;;;;;8.93;4.25;;;;;;;;;;9871555;28;20086;-80
2021/04/22 20:10:46;;;;;;;9.85;5.18;;;14.10;44.40;;;;;;9863212;29;20471;-79
2021/04/22 20:15:40;;;;;;;8.10;4.03;;;15.30;44.90;;;;;;9863466;29;20079;-77
2021/04/22 20:20:35;;;;;;;10.40;3.58;;;15.10;43.70;;;;;;9861642;29;20091;-78
2021/04/22 20:25:29;;;;;;;12.40;3.78;;;15.60;44.30;;;;;;9861762;29;20091;-77
2021/04/22 20:30:24;;;;;;;9.88;3.80;;;14.70;43.80;;;;;;9862388;29;20098;-78
2021/04/22 20:35:22;;;;;;;7.22;3.42;;;13.50;42.80;;;;;;9876819;29;20525;-78
2021/04/22 20:40:19;;;;;;;9.23;3.10;;;14.60;43.00;;;;;;9862555;29;20079;-79
2021/04/22 20:45:14;;;;;;;12.10;3.00;;;;;;;;;;9874514;29;20091;-76
2021/04/22 20:50:13;;;;;;;9.07;3.00;;;14.20;42.60;;;;;;9858063;29;20089;-76
2021/04/22 20:55:09;;;;;;;7.25;2.72;;;14.80;41.80;;;;;;9861383;29;20056;-78
2021/04/22 21:00:07;;;;;;;11.60;2.90;;;13.80;40.70;;;;;;9861474;29;20082;-75
2021/04/22 21:05:02;;;;;;;10.05;3.10;;;14.90;41.00;;;;;;9844371;29;20048;-77
2021/04/22 21:09:56;;;;;;;7.30;2.97;;;13.60;40.20;;;;;;9843278;29;20129;-77
2021/04/22 21:14:50;;;;;;;7.38;2.58;;;14.90;40.70;;;;;;9842253;29;20079;-77
2021/04/22 21:19:45;;;;;;;6.28;2.95;;;14.90;41.30;;;;;;9860305;29;20090;-76
2021/04/22 21:24:39;;;;;;;10.07;2.40;;;13.80;40.60;;;;;;9860692;29;20087;-78
2021/04/22 21:29:35;;;;;;;6.70;2.45;;;13.60;39.80;;;;;;9843960;29;20079;-77
2021/04/22 21:34:30;;;;;;;9.80;3.08;;;;;;;;;;9843917;29;20079;-77
2021/04/22 21:39:25;;;;;;;7.50;2.70;;;14.00;39.50;;;;;;9860537;29;20116;-78
2021/04/22 21:44:20;;;;;;;6.47;2.83;;;;;;;;;;9859960;29;20105;-77
2021/04/22 21:49:26;;;;;;;12.73;2.70;;;14.80;41.10;;;;;;9840733;29;20075;-77
2021/04/22 21:54:20;;;;;;;9.68;2.92;;;15.10;41.30;;;;;;9859703;29;20094;-76
2021/04/22 21:59:16;;;;;;;10.32;3.15;;;14.40;41.00;;;;;;9842964;29;20079;-76
2021/04/22 22:04:10;;;;;;;8.43;3.10;;;14.90;40.80;;;;;;9842971;29;20079;-77
2021/04/22 22:09:08;;;;;;;8.05;3.17;;;13.80;40.80;;;;;;9827566;29;20502;-77
2021/04/22 22:14:04;;;;;;;8.10;3.03;;;13.40;40.60;;;;;;9859906;29;20129;-78
2021/04/22 22:19:02;;;;;;;8.07;2.75;;;14.20;40.20;;;;;;9859740;29;20083;-79
2021/04/22 22:23:56;;;;;;;9.40;3.03;;;;;;;;;;9854060;29;20079;-78
2021/04/22 22:28:51;;;;;;;10.13;2.92;;;15.90;41.80;;;;;;9861540;29;20079;-78
2021/04/22 22:33:45;;;;;;;7.78;3.10;;;14.40;41.10;;;;;;9865559;29;20083;-78
2021/04/22 22:38:42;;;;;;;7.47;2.83;;;14.00;40.20;;;;;;9865883;28;20106;-78
2021/04/22 22:43:39;;;;;;;8.32;2.65;;;15.20;41.60;;;;;;9866810;29;20078;-77
2021/04/22 22:48:32;;;;;;;6.90;2.80;;;13.90;40.20;;;;;;9866743;29;20083;-78
2021/04/22 22:53:27;;;;;;;8.32;2.97;;;;;;;;;;9848690;29;20478;-79
2021/04/22 22:58:23;;;;;;;7.05;2.63;;;15.10;41.50;;;;;;9865743;29;20086;-79
2021/04/22 23:03:18;;;;;;;13.32;4.18;;;13.30;40.70;;;;;;9865395;29;20075;-77
2021/04/22 23:08:13;;;;;;;8.65;2.75;;;13.70;40.50;;;;;;9865814;29;20094;-78
2021/04/22 23:13:09;;;;;;;8.98;3.13;;;14.10;40.70;;;;;;9848804;29;20097;-78
2021/04/22 23:18:10;;;;;;;9.57;3.33;;;14.10;41.00;;;;;;9848998;29;20090;-78
2021/04/22 23:23:06;;;;;;;10.73;3.85;;;14.10;41.20;;;;;;9865656;29;20102;-80
2021/04/22 23:28:01;;;;;;;10.50;3.22;;;13.40;41.00;;;;;;9847481;29;20096;-79
2021/04/22 23:32:56;;;;;;;7.07;3.20;;;12.60;41.30;;;;;;9863427;29;20048;-77
2021/04/22 23:37:52;;;;;;;12.60;3.13;;;;;;;;;;9863769;29;20055;-77
2021/04/22 23:42:47;;;;;;;13.93;3.40;;;15.20;42.70;;;;;;9864458;29;20082;-76
2021/04/22 23:47:42;;;;;;;7.70;3.10;;;12.30;41.60;;;;;;9847784;29;20082;-76
2021/04/22 23:52:35;;;;;;;8.00;2.78;;;15.10;43.00;;;;;;9847596;29;20106;-77
2021/04/22 23:57:30;;;;;;;10.27;3.05;;;14.10;42.10;;;;;;9864263;29;20474;-77
